Time;durP1;ratioP1;P1;durP2;ratioP2;P2;SDS_P1;SDS_P2;PMS_P1;PMS_P2;Temp;Humidity;BMP_temperature;BMP_pressure;BME280_temperature;BME280_humidity;BME280_pressure;Samples;Min_cycle;Max_cycle;Signal;HPM_P1;HPM_P2
2021/12/31 00:00:41;;;;;;;32.70;28.30;;;;;;;;;;106991;1277;63935;-29
2021/12/31 00:03:10;;;;;;;32.20;27.60;;;;;;;;;;107077;1276;64028;-28
2021/12/31 00:05:36;;;;;;;30.50;26.40;;;;;;;;;;107048;1277;63933;-28
2021/12/31 00:08:04;;;;;;;33.40;26.00;;;;;;;;;;107086;1277;63969;-28
2021/12/31 00:10:31;;;;;;;28.80;25.00;;;;;;;;;;107045;1277;64027;-29
2021/12/31 00:12:58;;;;;;;28.80;25.60;;;;;;;;;;107053;1277;63954;-29
2021/12/31 00:15:25;;;;;;;31.60;25.50;;;;;;;;;;107042;1277;64035;-35
2021/12/31 00:17:52;;;;;;;27.40;24.20;;;;;;;;;;107052;1276;63952;-28
2021/12/31 00:20:24;;;;;;;28.90;24.40;;;;;;;;;;107015;1277;63938;-28
2021/12/31 00:25:19;;;;;;;26.10;22.40;;;;;;;;;;107028;1277;64032;-27
2021/12/31 00:27:46;;;;;;;24.60;21.80;;;;;;;;;;107066;1277;65154;-29
2021/12/31 00:30:13;;;;;;;27.30;23.10;;;;;;;;;;107038;1277;64182;-28
2021/12/31 00:32:41;;;;;;;25.40;21.60;;;;;;;;;;107067;1276;63936;-26
2021/12/31 00:35:09;;;;;;;25.90;20.80;;;;;;;;;;107002;1276;64030;-27
2021/12/31 00:37:37;;;;;;;25.00;21.50;;;;;;;;;;107054;1277;64749;-27
2021/12/31 00:40:05;;;;;;;25.80;20.20;;;;;;;;;;107051;1277;64055;-30
2021/12/31 00:42:33;;;;;;;25.30;21.80;;;;;;;;;;107070;1277;64036;-27
2021/12/31 00:45:00;;;;;;;25.10;20.10;;;;;;;;;;107029;1276;64382;-31
2021/12/31 00:47:27;;;;;;;23.90;20.00;;;;;;;;;;107042;1276;63953;-29
2021/12/31 00:49:54;;;;;;;23.30;19.50;;;;;;;;;;107065;1276;64057;-27
2021/12/31 00:52:21;;;;;;;22.70;19.30;;;;;;;;;;106974;1277;64154;-26
2021/12/31 00:54:48;;;;;;;22.20;19.00;;;;;;;;;;107052;1277;64174;-28
2021/12/31 00:57:15;;;;;;;22.60;19.10;;;;;;;;;;107044;1276;63994;-27
2021/12/31 00:59:42;;;;;;;21.40;18.30;;;;;;;;;;107070;1276;63948;-28
2021/12/31 01:02:11;;;;;;;21.70;18.50;;;;;;;;;;107031;1277;63950;-28
2021/12/31 01:04:39;;;;;;;21.20;18.80;;;;;;;;;;107047;1276;64086;-29
2021/12/31 01:07:06;;;;;;;21.50;17.50;;;;;;;;;;107064;1277;63937;-29
2021/12/31 01:09:33;;;;;;;22.40;18.20;;;;;;;;;;107039;1277;64056;-27
2021/12/31 01:12:01;;;;;;;21.00;17.50;;;;;;;;;;107056;1277;63948;-27
2021/12/31 01:14:41;;;;;;;22.10;18.20;;;;;;;;;;107041;1277;64088;-27
2021/12/31 01:17:12;;;;;;;20.40;16.70;;;;;;;;;;107062;1276;64045;-27
2021/12/31 01:19:49;;;;;;;19.50;16.40;;;;;;;;;;107070;1277;64045;-33
2021/12/31 01:22:18;;;;;;;20.10;16.90;;;;;;;;;;107071;1277;64151;-35
2021/12/31 01:24:45;;;;;;;20.40;16.40;;;;;;;;;;107036;1277;64063;-27
2021/12/31 01:27:13;;;;;;;18.00;15.70;;;;;;;;;;107095;1277;64043;-27
2021/12/31 01:29:40;;;;;;;19.10;15.90;;;;;;;;;;107030;1276;63997;-29
2021/12/31 01:32:07;;;;;;;20.70;16.10;;;;;;;;;;107040;1277;64081;-27
2021/12/31 01:34:35;;;;;;;18.30;16.30;;;;;;;;;;107061;1276;64132;-27
2021/12/31 01:37:02;;;;;;;18.70;16.10;;;;;;;;;;107051;1277;64027;-27
2021/12/31 01:39:29;;;;;;;18.90;15.40;;;;;;;;;;107053;1276;63954;-27
2021/12/31 01:41:58;;;;;;;18.50;15.60;;;;;;;;;;107055;1277;64092;-27
2021/12/31 01:44:35;;;;;;;17.20;15.40;;;;;;;;;;107052;1277;64180;-27
2021/12/31 01:47:08;;;;;;;17.40;15.00;;;;;;;;;;107051;1278;63949;-27
2021/12/31 01:49:39;;;;;;;17.90;15.40;;;;;;;;;;107067;1277;63977;-28
2021/12/31 01:52:07;;;;;;;17.00;15.00;;;;;;;;;;107076;1276;63919;-29
2021/12/31 01:54:35;;;;;;;17.60;15.30;;;;;;;;;;107031;1277;63948;-29
2021/12/31 01:57:02;;;;;;;19.10;15.40;;;;;;;;;;107057;1277;64153;-29
2021/12/31 01:59:30;;;;;;;17.90;15.20;;;;;;;;;;107050;1277;64153;-27
2021/12/31 02:01:57;;;;;;;18.10;15.90;;;;;;;;;;107041;1277;64027;-26
2021/12/31 02:04:24;;;;;;;17.20;14.00;;;;;;;;;;107054;1277;64055;-27
2021/12/31 02:06:51;;;;;;;17.50;15.00;;;;;;;;;;107063;1277;64007;-30
2021/12/31 02:09:18;;;;;;;19.20;15.20;;;;;;;;;;107061;1277;64280;-27
2021/12/31 02:11:45;;;;;;;17.20;13.90;;;;;;;;;;107063;1277;64037;-27
2021/12/31 02:14:12;;;;;;;18.20;14.60;;;;;;;;;;107023;1277;63961;-27
2021/12/31 02:16:38;;;;;;;16.40;14.10;;;;;;;;;;107042;1277;64056;-27
2021/12/31 02:19:16;;;;;;;16.30;14.50;;;;;;;;;;107038;1277;64010;-29
2021/12/31 02:21:45;;;;;;;15.50;13.60;;;;;;;;;;107050;1277;64136;-29
2021/12/31 02:24:13;;;;;;;17.50;14.70;;;;;;;;;;107056;1277;64074;-26
2021/12/31 02:26:40;;;;;;;16.00;14.00;;;;;;;;;;107037;1277;64041;-28
2021/12/31 02:29:08;;;;;;;15.70;13.40;;;;;;;;;;107071;1277;64034;-29
2021/12/31 02:31:35;;;;;;;16.30;14.00;;;;;;;;;;107059;1277;64075;-28
2021/12/31 02:34:02;;;;;;;15.50;13.80;;;;;;;;;;107044;1276;64080;-28
2021/12/31 02:36:29;;;;;;;14.60;12.80;;;;;;;;;;107070;1277;64158;-28
2021/12/31 02:38:55;;;;;;;15.80;13.20;;;;;;;;;;107049;1278;64168;-28
2021/12/31 02:41:22;;;;;;;16.50;13.40;;;;;;;;;;107034;1277;63932;-28
2021/12/31 02:43:50;;;;;;;14.80;12.00;;;;;;;;;;107037;1278;63941;-27
2021/12/31 02:46:17;;;;;;;14.70;12.50;;;;;;;;;;106995;1278;64066;-27
2021/12/31 02:48:44;;;;;;;13.60;12.20;;;;;;;;;;107034;1277;64063;-29
2021/12/31 02:51:11;;;;;;;14.70;12.10;;;;;;;;;;107032;1278;63926;-30
2021/12/31 02:53:41;;;;;;;14.50;11.70;;;;;;;;;;107014;1277;63928;-28
2021/12/31 02:56:09;;;;;;;15.70;12.70;;;;;;;;;;107032;1277;64040;-29
2021/12/31 02:58:36;;;;;;;14.90;11.90;;;;;;;;;;107083;1277;64104;-30
2021/12/31 03:01:05;;;;;;;14.40;11.70;;;;;;;;;;107024;1278;63925;-25
2021/12/31 03:03:33;;;;;;;14.40;10.90;;;;;;;;;;106988;1278;64053;-27
2021/12/31 03:06:00;;;;;;;14.30;11.60;;;;;;;;;;107023;1277;63961;-28
2021/12/31 03:08:29;;;;;;;13.20;10.90;;;;;;;;;;107049;1278;64044;-26
2021/12/31 03:10:57;;;;;;;16.40;11.80;;;;;;;;;;107025;1278;63945;-27
2021/12/31 03:13:24;;;;;;;12.70;10.70;;;;;;;;;;106989;1277;63951;-28
2021/12/31 03:15:52;;;;;;;13.50;11.60;;;;;;;;;;107065;1277;64049;-29
2021/12/31 03:18:19;;;;;;;12.80;10.90;;;;;;;;;;107051;1278;64040;-27
2021/12/31 03:20:57;;;;;;;13.60;10.70;;;;;;;;;;107033;1277;64069;-27
2021/12/31 03:23:24;;;;;;;12.60;10.40;;;;;;;;;;107035;1277;63938;-28
2021/12/31 03:25:51;;;;;;;14.20;11.70;;;;;;;;;;107033;1278;64042;-28
2021/12/31 03:28:19;;;;;;;12.20;10.10;;;;;;;;;;107043;1278;64104;-28
2021/12/31 03:30:46;;;;;;;13.10;10.00;;;;;;;;;;106775;1278;400903;-29
2021/12/31 03:33:14;;;;;;;11.70;9.80;;;;;;;;;;107035;1278;64175;-27
2021/12/31 03:35:41;;;;;;;12.10;9.70;;;;;;;;;;107044;1277;63954;-27
2021/12/31 03:38:08;;;;;;;11.80;9.90;;;;;;;;;;107031;1278;64092;-27
2021/12/31 03:40:35;;;;;;;11.70;9.70;;;;;;;;;;106959;1278;64050;-27
2021/12/31 03:43:03;;;;;;;12.30;10.50;;;;;;;;;;107032;1278;64161;-38
2021/12/31 03:45:30;;;;;;;11.60;9.20;;;;;;;;;;106966;1277;64135;-28
2021/12/31 03:47:57;;;;;;;10.40;9.00;;;;;;;;;;107026;1277;63956;-27
2021/12/31 03:50:24;;;;;;;11.70;9.00;;;;;;;;;;107015;1277;64049;-34
2021/12/31 03:52:51;;;;;;;11.10;9.50;;;;;;;;;;107019;1278;64047;-28
2021/12/31 03:55:18;;;;;;;11.30;8.90;;;;;;;;;;107010;1277;64031;-28
2021/12/31 03:57:45;;;;;;;12.20;9.20;;;;;;;;;;106995;1278;64075;-27
2021/12/31 04:00:12;;;;;;;10.40;8.70;;;;;;;;;;107099;1278;63925;-30
2021/12/31 04:02:39;;;;;;;11.20;8.50;;;;;;;;;;107076;1278;64075;-32
2021/12/31 04:05:07;;;;;;;10.80;8.90;;;;;;;;;;107100;1277;63912;-29
2021/12/31 04:07:34;;;;;;;11.60;8.90;;;;;;;;;;107061;1277;63948;-30
2021/12/31 04:10:01;;;;;;;11.00;8.80;;;;;;;;;;106964;1278;64150;-28
2021/12/31 04:12:27;;;;;;;11.50;9.10;;;;;;;;;;107054;1277;64027;-31
2021/12/31 04:14:54;;;;;;;10.40;8.40;;;;;;;;;;107093;1277;63973;-29
2021/12/31 04:17:21;;;;;;;9.90;7.60;;;;;;;;;;107017;1278;64134;-28
2021/12/31 04:19:52;;;;;;;9.90;8.00;;;;;;;;;;107073;1277;64712;-29
2021/12/31 04:22:21;;;;;;;9.90;8.10;;;;;;;;;;107038;1277;63954;-27
2021/12/31 04:27:17;;;;;;;10.50;8.00;;;;;;;;;;107110;1277;64053;-33
2021/12/31 04:29:50;;;;;;;10.00;7.90;;;;;;;;;;107086;1277;64174;-29
2021/12/31 04:32:17;;;;;;;;;;;;;;;;;;106961;1277;63954;-29
2021/12/31 04:34:44;;;;;;;9.40;7.30;;;;;;;;;;107068;1278;63910;-29
2021/12/31 04:37:11;;;;;;;10.00;7.40;;;;;;;;;;107069;1277;64060;-32
2021/12/31 04:39:38;;;;;;;9.10;7.30;;;;;;;;;;107078;1277;64006;-29
2021/12/31 04:42:06;;;;;;;9.60;7.00;;;;;;;;;;107122;1277;64072;-29
2021/12/31 04:44:33;;;;;;;10.10;7.60;;;;;;;;;;107105;1277;64167;-28
2021/12/31 04:47:00;;;;;;;8.00;6.50;;;;;;;;;;107084;1277;63915;-28
2021/12/31 04:49:27;;;;;;;10.50;6.60;;;;;;;;;;107099;1277;64034;-29
2021/12/31 04:51:53;;;;;;;9.10;7.00;;;;;;;;;;107065;1277;64059;-29
2021/12/31 04:54:21;;;;;;;8.40;6.50;;;;;;;;;;107102;1277;64142;-28
2021/12/31 04:56:51;;;;;;;9.00;6.90;;;;;;;;;;107103;1277;63954;-27
2021/12/31 04:59:19;;;;;;;9.20;6.80;;;;;;;;;;107090;1277;64583;-27
2021/12/31 05:01:47;;;;;;;8.10;6.00;;;;;;;;;;107086;1277;64037;-29
2021/12/31 05:04:14;;;;;;;8.50;6.20;;;;;;;;;;107069;1277;65156;-27
2021/12/31 05:06:42;;;;;;;8.10;6.20;;;;;;;;;;107095;1277;64136;-29
2021/12/31 05:09:10;;;;;;;8.30;6.60;;;;;;;;;;107084;1277;64082;-29
2021/12/31 05:11:37;;;;;;;7.90;5.80;;;;;;;;;;107071;1277;64054;-35
2021/12/31 05:14:04;;;;;;;9.20;6.70;;;;;;;;;;107104;1277;63944;-28
2021/12/31 05:16:31;;;;;;;8.80;6.40;;;;;;;;;;107075;1277;65117;-28
2021/12/31 05:18:58;;;;;;;8.40;6.00;;;;;;;;;;107085;1277;63934;-27
2021/12/31 05:21:25;;;;;;;8.20;6.20;;;;;;;;;;107065;1277;63944;-27
2021/12/31 05:23:52;;;;;;;7.90;6.00;;;;;;;;;;107062;1277;63964;-29
2021/12/31 05:26:19;;;;;;;8.10;5.60;;;;;;;;;;107079;1277;64044;-27
2021/12/31 05:28:46;;;;;;;8.90;5.80;;;;;;;;;;107067;1277;64143;-28
2021/12/31 05:31:13;;;;;;;8.30;6.10;;;;;;;;;;107093;1277;64041;-29
2021/12/31 05:33:40;;;;;;;7.80;5.80;;;;;;;;;;107094;1277;63919;-30
2021/12/31 05:36:06;;;;;;;7.80;5.90;;;;;;;;;;107089;1277;64048;-29
2021/12/31 05:38:33;;;;;;;7.40;5.40;;;;;;;;;;107007;1277;64056;-26
2021/12/31 05:41:00;;;;;;;8.30;5.30;;;;;;;;;;107063;1277;64059;-28
2021/12/31 05:43:27;;;;;;;7.90;5.40;;;;;;;;;;107115;1277;63921;-27
2021/12/31 05:45:54;;;;;;;7.40;5.30;;;;;;;;;;107028;1277;64060;-32
2021/12/31 05:48:21;;;;;;;8.10;5.80;;;;;;;;;;107079;1277;64016;-28
2021/12/31 05:50:48;;;;;;;7.70;5.80;;;;;;;;;;107083;1277;64036;-28
2021/12/31 05:53:15;;;;;;;7.20;5.60;;;;;;;;;;107083;1277;63938;-28
2021/12/31 05:55:42;;;;;;;7.20;5.40;;;;;;;;;;107092;1277;64053;-28
2021/12/31 05:58:09;;;;;;;6.70;5.00;;;;;;;;;;107068;1277;64605;-28
2021/12/31 06:00:35;;;;;;;7.10;4.80;;;;;;;;;;107083;1277;64082;-29
2021/12/31 06:03:02;;;;;;;6.60;5.20;;;;;;;;;;107081;1275;64066;-28
2021/12/31 06:05:29;;;;;;;7.50;5.00;;;;;;;;;;107088;1277;63989;-30
2021/12/31 06:07:57;;;;;;;8.50;5.70;;;;;;;;;;107075;1277;64044;-29
2021/12/31 06:10:24;;;;;;;7.00;4.90;;;;;;;;;;107063;1277;64024;-29
2021/12/31 06:12:55;;;;;;;7.30;5.20;;;;;;;;;;107073;1277;64057;-29
2021/12/31 06:15:23;;;;;;;6.90;5.10;;;;;;;;;;107072;1277;64072;-28
2021/12/31 06:17:50;;;;;;;6.80;5.20;;;;;;;;;;107080;1277;63941;-30
2021/12/31 06:20:18;;;;;;;7.80;5.20;;;;;;;;;;107086;1277;64072;-29
2021/12/31 06:22:45;;;;;;;6.70;5.20;;;;;;;;;;107093;1277;64002;-29
2021/12/31 06:25:11;;;;;;;6.40;4.60;;;;;;;;;;107090;1277;64057;-29
2021/12/31 06:27:38;;;;;;;7.00;5.00;;;;;;;;;;107080;1277;64149;-27
2021/12/31 06:30:05;;;;;;;7.10;5.00;;;;;;;;;;107098;1277;64037;-27
2021/12/31 06:32:32;;;;;;;6.60;4.50;;;;;;;;;;107076;1277;64084;-27
2021/12/31 06:34:59;;;;;;;8.30;5.10;;;;;;;;;;107072;1277;64142;-29
2021/12/31 06:37:27;;;;;;;6.40;4.50;;;;;;;;;;107085;1277;65121;-29
2021/12/31 06:39:54;;;;;;;6.30;4.50;;;;;;;;;;107089;1277;64017;-28
2021/12/31 06:42:21;;;;;;;5.80;4.30;;;;;;;;;;107099;1277;63935;-29
2021/12/31 06:44:48;;;;;;;6.20;4.70;;;;;;;;;;107088;1277;63965;-28
2021/12/31 06:47:14;;;;;;;6.20;4.30;;;;;;;;;;107074;1277;64038;-28
2021/12/31 06:49:42;;;;;;;7.20;4.60;;;;;;;;;;107118;1277;63941;-27
2021/12/31 06:52:09;;;;;;;6.30;4.50;;;;;;;;;;107066;1277;64069;-29
2021/12/31 06:54:36;;;;;;;6.90;4.40;;;;;;;;;;107116;1277;64178;-29
2021/12/31 06:57:04;;;;;;;5.90;4.10;;;;;;;;;;107085;1277;64148;-27
2021/12/31 06:59:31;;;;;;;6.70;4.40;;;;;;;;;;107064;1277;63980;-28
2021/12/31 07:01:58;;;;;;;6.50;4.10;;;;;;;;;;107094;1277;64053;-28
2021/12/31 07:04:24;;;;;;;8.00;4.40;;;;;;;;;;107093;1276;63944;-27
2021/12/31 07:06:51;;;;;;;5.90;4.10;;;;;;;;;;107086;1277;64069;-28
2021/12/31 07:09:18;;;;;;;6.00;3.80;;;;;;;;;;107061;1277;63921;-28
2021/12/31 07:11:45;;;;;;;6.50;4.30;;;;;;;;;;107069;1277;63953;-29
2021/12/31 07:14:12;;;;;;;6.20;4.20;;;;;;;;;;107091;1277;64065;-27
2021/12/31 07:16:39;;;;;;;5.50;3.70;;;;;;;;;;107075;1276;64081;-27
2021/12/31 07:19:05;;;;;;;6.60;4.00;;;;;;;;;;107121;1277;63608;-28
2021/12/31 07:21:32;;;;;;;5.70;3.90;;;;;;;;;;107086;1277;64046;-29
2021/12/31 07:23:59;;;;;;;5.70;3.90;;;;;;;;;;107116;1277;64009;-29
2021/12/31 07:26:26;;;;;;;5.20;3.50;;;;;;;;;;107025;1277;64024;-29
2021/12/31 07:28:53;;;;;;;5.70;3.80;;;;;;;;;;107067;1277;64032;-30
2021/12/31 07:31:20;;;;;;;6.20;4.20;;;;;;;;;;107069;1277;63980;-30
2021/12/31 07:33:47;;;;;;;5.40;3.70;;;;;;;;;;107013;1277;64014;-34
2021/12/31 07:36:14;;;;;;;4.90;3.40;;;;;;;;;;107023;1277;63939;-27
2021/12/31 07:38:47;;;;;;;6.20;3.90;;;;;;;;;;107060;1277;63924;-29
2021/12/31 07:41:14;;;;;;;5.80;3.80;;;;;;;;;;107080;1277;64031;-29
2021/12/31 07:43:41;;;;;;;5.70;3.70;;;;;;;;;;107090;1277;64321;-29
2021/12/31 07:46:08;;;;;;;4.80;3.00;;;;;;;;;;107063;1277;63980;-33
2021/12/31 07:48:35;;;;;;;6.10;3.70;;;;;;;;;;107014;1277;64052;-28
2021/12/31 07:51:02;;;;;;;5.00;3.30;;;;;;;;;;107093;1277;64038;-30
2021/12/31 07:53:29;;;;;;;5.60;3.70;;;;;;;;;;107078;1277;64059;-28
2021/12/31 07:55:56;;;;;;;5.10;3.30;;;;;;;;;;106999;1277;64075;-28
2021/12/31 07:58:24;;;;;;;5.00;3.00;;;;;;;;;;107016;1277;64159;-29
2021/12/31 08:00:51;;;;;;;5.80;3.60;;;;;;;;;;107076;1277;65203;-29
2021/12/31 08:03:18;;;;;;;5.30;3.30;;;;;;;;;;107068;1277;64143;-26
2021/12/31 08:05:45;;;;;;;5.20;3.40;;;;;;;;;;107079;1275;64064;-29
2021/12/31 08:08:11;;;;;;;5.60;3.80;;;;;;;;;;107068;1277;63958;-30
2021/12/31 08:10:38;;;;;;;5.40;3.30;;;;;;;;;;107097;1277;64021;-27
2021/12/31 08:13:06;;;;;;;5.30;3.50;;;;;;;;;;107094;1277;64060;-27
2021/12/31 08:15:33;;;;;;;6.00;3.60;;;;;;;;;;107082;1277;64174;-26
2021/12/31 08:17:59;;;;;;;6.10;3.30;;;;;;;;;;107091;1277;64075;-27
2021/12/31 08:20:26;;;;;;;6.10;3.40;;;;;;;;;;107069;1277;64098;-27
2021/12/31 08:22:53;;;;;;;5.10;3.10;;;;;;;;;;107074;1277;64139;-27
2021/12/31 08:25:20;;;;;;;5.50;3.30;;;;;;;;;;107099;1277;64020;-39
2021/12/31 08:27:47;;;;;;;5.00;3.30;;;;;;;;;;106990;1277;64149;-29
2021/12/31 08:30:15;;;;;;;5.00;3.00;;;;;;;;;;107084;1277;63947;-29
2021/12/31 08:32:42;;;;;;;6.10;3.80;;;;;;;;;;107081;1277;64069;-29
2021/12/31 08:35:09;;;;;;;5.50;3.00;;;;;;;;;;107081;1277;63996;-27
2021/12/31 08:37:35;;;;;;;5.70;3.50;;;;;;;;;;107076;1277;64194;-27
2021/12/31 08:40:03;;;;;;;5.40;3.50;;;;;;;;;;107050;1277;64141;-27
2021/12/31 08:42:31;;;;;;;5.10;3.10;;;;;;;;;;107133;1277;64034;-27
2021/12/31 08:44:58;;;;;;;5.30;3.10;;;;;;;;;;107016;1277;64063;-27
2021/12/31 08:47:25;;;;;;;4.90;3.10;;;;;;;;;;107069;1277;64004;-37
2021/12/31 08:49:52;;;;;;;4.50;2.90;;;;;;;;;;107082;1277;63977;-29
2021/12/31 08:52:18;;;;;;;5.50;3.40;;;;;;;;;;107085;1275;64171;-29
2021/12/31 08:54:45;;;;;;;5.60;3.40;;;;;;;;;;107046;1277;64036;-27
2021/12/31 08:57:12;;;;;;;4.60;2.80;;;;;;;;;;107066;1277;63951;-27
2021/12/31 08:59:39;;;;;;;5.30;3.00;;;;;;;;;;107021;1277;64035;-27
2021/12/31 09:02:06;;;;;;;5.60;3.20;;;;;;;;;;107096;1277;64155;-26
2021/12/31 09:04:33;;;;;;;4.80;3.00;;;;;;;;;;107093;1277;63918;-28
2021/12/31 09:07:00;;;;;;;5.50;3.20;;;;;;;;;;107078;1277;64165;-28
2021/12/31 09:09:28;;;;;;;6.00;3.30;;;;;;;;;;107040;1277;64052;-28
2021/12/31 09:11:56;;;;;;;4.70;2.90;;;;;;;;;;107062;1277;63944;-27
2021/12/31 09:14:24;;;;;;;5.70;3.40;;;;;;;;;;107127;1277;64034;-27
2021/12/31 09:16:52;;;;;;;5.00;2.80;;;;;;;;;;107117;1277;64008;-27
2021/12/31 09:19:19;;;;;;;5.00;2.80;;;;;;;;;;107091;1277;64032;-30
2021/12/31 09:21:49;;;;;;;4.90;3.00;;;;;;;;;;107133;1277;64034;-28
2021/12/31 09:24:16;;;;;;;5.00;3.10;;;;;;;;;;107084;1277;64063;-27
2021/12/31 09:26:43;;;;;;;5.40;3.20;;;;;;;;;;107082;1277;64024;-29
2021/12/31 09:29:10;;;;;;;6.60;3.50;;;;;;;;;;107099;1277;64046;-27
2021/12/31 09:31:38;;;;;;;7.10;3.50;;;;;;;;;;107087;1277;64143;-27
2021/12/31 09:34:04;;;;;;;7.70;3.70;;;;;;;;;;107060;1277;64091;-32
2021/12/31 09:36:32;;;;;;;7.70;3.80;;;;;;;;;;107082;1277;64075;-26
2021/12/31 09:38:58;;;;;;;8.70;4.10;;;;;;;;;;107088;1277;64028;-27
2021/12/31 09:41:26;;;;;;;6.80;3.80;;;;;;;;;;107130;1277;63939;-27
2021/12/31 09:43:54;;;;;;;8.30;3.60;;;;;;;;;;107072;1275;64022;-29
2021/12/31 09:46:22;;;;;;;9.00;4.50;;;;;;;;;;107053;1277;64059;-32
2021/12/31 09:48:49;;;;;;;9.30;3.80;;;;;;;;;;107087;1277;63963;-28
2021/12/31 09:51:17;;;;;;;9.60;4.50;;;;;;;;;;107036;1277;64079;-29
2021/12/31 09:53:45;;;;;;;7.80;4.00;;;;;;;;;;107115;1277;64082;-31
2021/12/31 09:56:13;;;;;;;9.70;4.10;;;;;;;;;;107076;1277;63967;-29
2021/12/31 09:58:40;;;;;;;8.40;4.30;;;;;;;;;;107069;1277;64027;-28
2021/12/31 10:01:09;;;;;;;8.00;4.60;;;;;;;;;;107112;1277;64167;-27
2021/12/31 10:03:37;;;;;;;9.40;4.10;;;;;;;;;;107086;1276;63983;-28
2021/12/31 10:06:11;;;;;;;8.30;3.70;;;;;;;;;;107064;1277;63997;-29
2021/12/31 10:08:39;;;;;;;8.00;3.50;;;;;;;;;;107114;1277;64138;-26
2021/12/31 10:11:11;;;;;;;7.70;3.70;;;;;;;;;;107131;1277;64040;-28
2021/12/31 10:13:39;;;;;;;8.90;4.20;;;;;;;;;;107068;1277;64059;-27
2021/12/31 10:16:18;;;;;;;7.50;3.80;;;;;;;;;;107099;1276;64595;-27
2021/12/31 10:18:45;;;;;;;6.10;3.40;;;;;;;;;;107083;1277;63956;-27
2021/12/31 10:21:12;;;;;;;6.70;3.70;;;;;;;;;;107051;1277;64162;-28
2021/12/31 10:23:39;;;;;;;9.20;3.40;;;;;;;;;;107095;1277;63887;-27
2021/12/31 10:26:12;;;;;;;7.10;2.90;;;;;;;;;;107085;1277;64053;-27
2021/12/31 10:28:55;;;;;;;8.70;3.40;;;;;;;;;;107061;1277;64065;-29
2021/12/31 10:31:23;;;;;;;6.30;2.90;;;;;;;;;;107110;1277;63941;-29
2021/12/31 10:33:50;;;;;;;6.40;3.10;;;;;;;;;;107076;1277;64077;-27
2021/12/31 10:36:31;;;;;;;5.60;3.60;;;;;;;;;;107068;1277;63992;-27
2021/12/31 10:38:59;;;;;;;6.50;2.80;;;;;;;;;;107121;1277;64126;-26
2021/12/31 10:41:27;;;;;;;5.50;2.70;;;;;;;;;;107128;1277;64057;-25
2021/12/31 10:43:56;;;;;;;5.80;2.60;;;;;;;;;;106972;1276;64031;-36
2021/12/31 10:46:23;;;;;;;6.00;2.60;;;;;;;;;;107015;1277;64172;-27
2021/12/31 10:48:52;;;;;;;6.90;3.00;;;;;;;;;;107003;1277;64140;-27
2021/12/31 10:51:35;;;;;;;5.90;3.20;;;;;;;;;;107026;1276;64032;-30
2021/12/31 10:54:37;;;;;;;5.90;3.20;;;;;;;;;;107019;1276;63973;-28
2021/12/31 10:57:04;;;;;;;5.20;2.90;;;;;;;;;;107022;1276;64053;-30
2021/12/31 10:59:37;;;;;;;4.40;3.00;;;;;;;;;;107031;1276;64066;-29
2021/12/31 11:02:05;;;;;;;6.30;3.00;;;;;;;;;;106983;1277;64060;-28
2021/12/31 11:04:32;;;;;;;5.80;3.30;;;;;;;;;;107022;1277;64198;-30
2021/12/31 11:07:00;;;;;;;5.50;2.90;;;;;;;;;;107011;1277;64384;-31
2021/12/31 11:09:29;;;;;;;5.70;2.80;;;;;;;;;;106971;1276;63958;-32
2021/12/31 11:11:57;;;;;;;4.90;2.90;;;;;;;;;;107005;1276;64165;-29
2021/12/31 11:14:24;;;;;;;5.30;2.80;;;;;;;;;;106995;1277;64076;-29
2021/12/31 11:16:51;;;;;;;5.20;3.20;;;;;;;;;;107029;1276;64050;-29
2021/12/31 11:19:18;;;;;;;4.90;3.20;;;;;;;;;;106997;1278;64021;-37
2021/12/31 11:21:47;;;;;;;5.80;3.10;;;;;;;;;;106998;1277;64017;-30
2021/12/31 11:24:31;;;;;;;6.80;2.80;;;;;;;;;;106987;1276;64063;-29
2021/12/31 11:26:58;;;;;;;5.70;2.90;;;;;;;;;;106919;1276;64036;-31
2021/12/31 11:29:36;;;;;;;6.20;2.80;;;;;;;;;;107009;1276;64145;-28
2021/12/31 11:32:03;;;;;;;5.20;2.70;;;;;;;;;;106867;1276;63933;-28
2021/12/31 11:34:30;;;;;;;6.90;3.00;;;;;;;;;;106943;1277;64038;-29
2021/12/31 11:36:57;;;;;;;5.20;2.60;;;;;;;;;;106994;1276;64050;-29
2021/12/31 11:39:29;;;;;;;4.90;2.50;;;;;;;;;;107020;1276;64172;-29
2021/12/31 11:41:57;;;;;;;7.70;3.10;;;;;;;;;;106907;1279;64079;-32
2021/12/31 11:44:26;;;;;;;5.60;2.80;;;;;;;;;;107006;1277;64053;-29
2021/12/31 11:47:21;;;;;;;5.60;2.60;;;;;;;;;;107026;1276;64011;-31
2021/12/31 11:49:48;;;;;;;6.00;2.80;;;;;;;;;;107014;1276;65132;-26
2021/12/31 11:52:23;;;;;;;5.50;2.90;;;;;;;;;;107032;1276;64170;-29
2021/12/31 11:55:22;;;;;;;4.80;2.50;;;;;;;;;;107063;1276;63954;-30
2021/12/31 11:57:52;;;;;;;5.80;2.60;;;;;;;;;;106722;1276;64196;-28
2021/12/31 12:00:26;;;;;;;5.20;2.90;;;;;;;;;;107041;1276;64027;-28
2021/12/31 12:02:53;;;;;;;4.80;2.50;;;;;;;;;;107031;1276;64124;-29
2021/12/31 12:05:22;;;;;;;5.80;2.80;;;;;;;;;;107025;1276;64039;-30
2021/12/31 12:07:52;;;;;;;5.30;2.60;;;;;;;;;;107012;1277;64082;-29
2021/12/31 12:10:20;;;;;;;5.60;3.10;;;;;;;;;;106978;1276;64098;-28
2021/12/31 12:12:53;;;;;;;5.30;2.80;;;;;;;;;;106996;1276;63918;-32
2021/12/31 12:15:29;;;;;;;5.20;2.80;;;;;;;;;;107064;1276;64061;-30
2021/12/31 12:17:57;;;;;;;4.50;2.90;;;;;;;;;;106983;1277;64033;-27
2021/12/31 12:20:35;;;;;;;5.70;3.30;;;;;;;;;;106999;1277;63992;-33
2021/12/31 12:23:02;;;;;;;5.10;2.90;;;;;;;;;;107050;1276;64027;-31
2021/12/31 12:25:31;;;;;;;5.90;2.90;;;;;;;;;;106996;1276;63959;-33
2021/12/31 12:28:02;;;;;;;5.90;3.10;;;;;;;;;;107021;1276;64428;-31
2021/12/31 12:30:29;;;;;;;5.00;2.80;;;;;;;;;;107010;1276;64178;-35
2021/12/31 12:33:15;;;;;;;7.00;2.70;;;;;;;;;;107041;1276;63918;-31
2021/12/31 12:35:45;;;;;;;6.10;2.80;;;;;;;;;;106991;1277;64130;-31
2021/12/31 12:38:20;;;;;;;5.90;3.50;;;;;;;;;;107055;1277;64163;-30
2021/12/31 12:40:47;;;;;;;5.60;3.20;;;;;;;;;;107057;1276;64132;-29
2021/12/31 12:43:15;;;;;;;6.60;3.30;;;;;;;;;;107026;1276;63942;-28
2021/12/31 12:45:43;;;;;;;5.20;3.30;;;;;;;;;;107046;1276;63977;-34
2021/12/31 12:48:11;;;;;;;6.80;4.20;;;;;;;;;;107050;1277;63966;-28
2021/12/31 12:50:46;;;;;;;8.40;3.90;;;;;;;;;;107013;1276;64045;-29
2021/12/31 12:53:23;;;;;;;5.30;3.20;;;;;;;;;;107072;1276;64004;-31
2021/12/31 12:56:00;;;;;;;6.90;3.80;;;;;;;;;;107035;1276;63948;-30
2021/12/31 12:58:28;;;;;;;6.70;3.80;;;;;;;;;;107055;1277;64049;-30
2021/12/31 13:00:56;;;;;;;6.20;3.40;;;;;;;;;;107027;1276;64009;-29
2021/12/31 13:03:24;;;;;;;6.20;3.20;;;;;;;;;;107015;1276;64123;-31
2021/12/31 13:06:01;;;;;;;7.70;3.60;;;;;;;;;;107069;1276;63945;-29
2021/12/31 13:08:28;;;;;;;6.20;3.60;;;;;;;;;;107017;1276;64184;-32
2021/12/31 13:10:55;;;;;;;6.40;3.40;;;;;;;;;;106949;1277;63886;-32
2021/12/31 13:13:22;;;;;;;5.80;3.80;;;;;;;;;;107057;1276;63919;-28
2021/12/31 13:15:48;;;;;;;5.60;3.80;;;;;;;;;;107031;1276;65112;-29
2021/12/31 13:18:23;;;;;;;5.70;3.50;;;;;;;;;;107031;1276;64079;-31
2021/12/31 13:20:57;;;;;;;6.10;3.80;;;;;;;;;;107065;1277;63962;-31
2021/12/31 13:23:24;;;;;;;6.20;3.50;;;;;;;;;;106985;1277;64137;-29
2021/12/31 13:25:51;;;;;;;6.00;3.70;;;;;;;;;;107030;1276;63919;-30
2021/12/31 13:28:22;;;;;;;5.50;3.60;;;;;;;;;;106998;1276;64060;-30
2021/12/31 13:30:49;;;;;;;5.90;3.20;;;;;;;;;;107036;1277;64030;-30
2021/12/31 13:33:24;;;;;;;5.70;3.90;;;;;;;;;;106939;1277;64034;-29
2021/12/31 13:36:10;;;;;;;5.70;3.80;;;;;;;;;;107036;1276;64068;-30
2021/12/31 13:38:56;;;;;;;5.70;3.30;;;;;;;;;;107029;1276;64051;-31
2021/12/31 13:41:23;;;;;;;6.30;3.70;;;;;;;;;;107036;1276;64082;-30
2021/12/31 13:43:52;;;;;;;5.10;3.40;;;;;;;;;;107030;1276;63951;-33
2021/12/31 13:46:20;;;;;;;5.40;3.30;;;;;;;;;;107053;1276;64024;-32
2021/12/31 13:48:46;;;;;;;5.60;3.90;;;;;;;;;;107032;1276;63914;-33
2021/12/31 13:51:27;;;;;;;5.70;3.40;;;;;;;;;;107030;1276;64017;-32
2021/12/31 13:53:54;;;;;;;5.70;3.20;;;;;;;;;;107081;1276;64143;-31
2021/12/31 13:56:35;;;;;;;5.10;3.60;;;;;;;;;;107018;1276;63950;-31
2021/12/31 13:59:19;;;;;;;5.60;3.30;;;;;;;;;;107011;1276;63903;-31
2021/12/31 14:02:02;;;;;;;5.50;3.40;;;;;;;;;;107029;1276;64044;-31
2021/12/31 14:04:29;;;;;;;;;;;;;;;;;;107095;1277;64067;-30
2021/12/31 14:07:06;;;;;;;6.10;3.30;;;;;;;;;;106969;1278;64005;-31
2021/12/31 14:09:33;;;;;;;5.90;3.50;;;;;;;;;;106991;1276;64030;-30
2021/12/31 14:12:03;;;;;;;6.00;3.80;;;;;;;;;;107048;1276;65141;-30
2021/12/31 14:14:30;;;;;;;5.20;3.40;;;;;;;;;;107071;1276;63952;-32
2021/12/31 14:16:57;;;;;;;5.10;2.90;;;;;;;;;;107042;1277;63967;-37
2021/12/31 14:19:25;;;;;;;5.40;3.50;;;;;;;;;;107032;1276;63963;-30
2021/12/31 14:21:52;;;;;;;6.30;3.60;;;;;;;;;;107041;1276;64159;-30
2021/12/31 14:24:19;;;;;;;5.10;3.00;;;;;;;;;;107078;1277;64069;-30
2021/12/31 14:26:46;;;;;;;5.70;3.40;;;;;;;;;;107067;1273;63951;-31
2021/12/31 14:29:13;;;;;;;5.60;3.40;;;;;;;;;;107130;1273;64070;-31
2021/12/31 14:31:40;;;;;;;6.50;3.60;;;;;;;;;;107089;1273;64038;-31
2021/12/31 14:34:07;;;;;;;5.50;3.10;;;;;;;;;;107115;1273;64084;-30
2021/12/31 14:36:50;;;;;;;5.00;3.30;;;;;;;;;;107068;1273;64018;-29